sensor_id;sensor_type;location;lat;lon;timestamp;P1;durP1;ratioP1;P2;durP2;ratioP2
11671;SDS011;5892;43.412;24.612;2023-10-31T00:02:16;8.87;;;4.17;;
11671;SDS011;5892;43.412;24.612;2023-10-31T00:04:47;8.93;;;4.67;;
11671;SDS011;5892;43.412;24.612;2023-10-31T00:07:17;5.57;;;4.40;;
11671;SDS011;5892;43.412;24.612;2023-10-31T00:09:48;9.33;;;4.57;;
11671;SDS011;5892;43.412;24.612;2023-10-31T00:12:16;12.03;;;4.60;;
11671;SDS011;5892;43.412;24.612;2023-10-31T00:14:45;10.07;;;4.30;;
11671;SDS011;5892;43.412;24.612;2023-10-31T00:17:14;7.37;;;4.50;;
11671;SDS011;5892;43.412;24.612;2023-10-31T00:19:41;6.53;;;3.87;;
11671;SDS011;5892;43.412;24.612;2023-10-31T00:22:12;9.60;;;3.90;;
11671;SDS011;5892;43.412;24.612;2023-10-31T00:24:41;7.13;;;4.20;;
11671;SDS011;5892;43.412;24.612;2023-10-31T00:27:10;7.63;;;4.40;;
11671;SDS011;5892;43.412;24.612;2023-10-31T00:29:40;10.77;;;4.40;;
11671;SDS011;5892;43.412;24.612;2023-10-31T00:32:09;8.30;;;4.30;;
11671;SDS011;5892;43.412;24.612;2023-10-31T00:34:38;6.30;;;4.27;;
11671;SDS011;5892;43.412;24.612;2023-10-31T00:37:06;10.97;;;4.30;;
11671;SDS011;5892;43.412;24.612;2023-10-31T00:39:35;5.03;;;4.00;;
11671;SDS011;5892;43.412;24.612;2023-10-31T00:42:03;8.57;;;4.40;;
11671;SDS011;5892;43.412;24.612;2023-10-31T00:44:34;9.60;;;4.60;;
11671;SDS011;5892;43.412;24.612;2023-10-31T00:47:01;6.20;;;4.13;;
11671;SDS011;5892;43.412;24.612;2023-10-31T00:49:30;6.63;;;4.30;;
11671;SDS011;5892;43.412;24.612;2023-10-31T00:51:59;8.00;;;4.40;;
11671;SDS011;5892;43.412;24.612;2023-10-31T00:54:29;9.23;;;4.50;;
11671;SDS011;5892;43.412;24.612;2023-10-31T00:56:56;8.70;;;4.67;;
11671;SDS011;5892;43.412;24.612;2023-10-31T00:59:25;8.60;;;4.40;;
11671;SDS011;5892;43.412;24.612;2023-10-31T01:01:52;6.67;;;4.20;;
11671;SDS011;5892;43.412;24.612;2023-10-31T01:04:20;9.70;;;4.30;;
11671;SDS011;5892;43.412;24.612;2023-10-31T01:06:47;7.53;;;4.40;;
11671;SDS011;5892;43.412;24.612;2023-10-31T01:09:16;7.17;;;4.37;;
11671;SDS011;5892;43.412;24.612;2023-10-31T01:11:43;9.93;;;4.73;;
11671;SDS011;5892;43.412;24.612;2023-10-31T01:14:11;6.50;;;4.23;;
11671;SDS011;5892;43.412;24.612;2023-10-31T01:16:39;6.67;;;4.30;;
11671;SDS011;5892;43.412;24.612;2023-10-31T01:19:08;8.57;;;4.87;;
11671;SDS011;5892;43.412;24.612;2023-10-31T01:21:39;6.33;;;4.33;;
11671;SDS011;5892;43.412;24.612;2023-10-31T01:24:06;8.83;;;4.20;;
11671;SDS011;5892;43.412;24.612;2023-10-31T01:26:36;6.80;;;4.90;;
11671;SDS011;5892;43.412;24.612;2023-10-31T01:29:06;7.90;;;4.30;;
11671;SDS011;5892;43.412;24.612;2023-10-31T01:31:33;7.67;;;4.57;;
11671;SDS011;5892;43.412;24.612;2023-10-31T01:34:03;6.63;;;4.30;;
11671;SDS011;5892;43.412;24.612;2023-10-31T01:36:33;7.17;;;4.10;;
11671;SDS011;5892;43.412;24.612;2023-10-31T01:39:00;7.97;;;4.83;;
11671;SDS011;5892;43.412;24.612;2023-10-31T01:41:27;8.67;;;4.50;;
11671;SDS011;5892;43.412;24.612;2023-10-31T01:43:56;8.90;;;5.13;;
11671;SDS011;5892;43.412;24.612;2023-10-31T01:46:23;8.10;;;4.87;;
11671;SDS011;5892;43.412;24.612;2023-10-31T01:48:50;7.80;;;4.87;;
11671;SDS011;5892;43.412;24.612;2023-10-31T01:51:17;11.50;;;5.03;;
11671;SDS011;5892;43.412;24.612;2023-10-31T01:53:46;6.47;;;4.57;;
11671;SDS011;5892;43.412;24.612;2023-10-31T01:56:23;8.03;;;4.70;;
11671;SDS011;5892;43.412;24.612;2023-10-31T01:58:52;6.40;;;4.47;;
11671;SDS011;5892;43.412;24.612;2023-10-31T02:01:22;5.93;;;4.27;;
11671;SDS011;5892;43.412;24.612;2023-10-31T02:03:51;7.13;;;4.43;;
11671;SDS011;5892;43.412;24.612;2023-10-31T02:06:20;8.03;;;4.97;;
11671;SDS011;5892;43.412;24.612;2023-10-31T02:08:49;9.40;;;4.57;;
11671;SDS011;5892;43.412;24.612;2023-10-31T02:11:16;8.63;;;4.63;;
11671;SDS011;5892;43.412;24.612;2023-10-31T02:13:43;6.67;;;4.57;;
11671;SDS011;5892;43.412;24.612;2023-10-31T02:16:11;9.03;;;4.47;;
11671;SDS011;5892;43.412;24.612;2023-10-31T02:18:47;5.23;;;4.13;;
11671;SDS011;5892;43.412;24.612;2023-10-31T02:21:16;8.60;;;4.90;;
11671;SDS011;5892;43.412;24.612;2023-10-31T02:23:57;7.70;;;4.70;;
11671;SDS011;5892;43.412;24.612;2023-10-31T02:26:28;8.40;;;4.63;;
11671;SDS011;5892;43.412;24.612;2023-10-31T02:28:55;7.27;;;4.77;;
11671;SDS011;5892;43.412;24.612;2023-10-31T02:31:23;8.03;;;4.60;;
11671;SDS011;5892;43.412;24.612;2023-10-31T02:33:50;9.53;;;4.73;;
11671;SDS011;5892;43.412;24.612;2023-10-31T02:36:19;7.67;;;4.83;;
11671;SDS011;5892;43.412;24.612;2023-10-31T02:38:49;7.83;;;4.63;;
11671;SDS011;5892;43.412;24.612;2023-10-31T02:41:17;7.23;;;4.70;;
11671;SDS011;5892;43.412;24.612;2023-10-31T02:43:45;12.20;;;5.30;;
11671;SDS011;5892;43.412;24.612;2023-10-31T02:46:12;7.33;;;4.73;;
11671;SDS011;5892;43.412;24.612;2023-10-31T02:48:40;7.63;;;4.73;;
11671;SDS011;5892;43.412;24.612;2023-10-31T02:51:07;10.50;;;4.93;;
11671;SDS011;5892;43.412;24.612;2023-10-31T02:53:36;6.10;;;4.40;;
11671;SDS011;5892;43.412;24.612;2023-10-31T02:56:03;8.97;;;4.90;;
11671;SDS011;5892;43.412;24.612;2023-10-31T02:58:34;9.27;;;4.77;;
11671;SDS011;5892;43.412;24.612;2023-10-31T03:01:02;6.70;;;4.43;;
11671;SDS011;5892;43.412;24.612;2023-10-31T03:03:29;7.73;;;4.80;;
11671;SDS011;5892;43.412;24.612;2023-10-31T03:05:57;9.13;;;4.53;;
11671;SDS011;5892;43.412;24.612;2023-10-31T03:08:24;8.40;;;4.50;;
11671;SDS011;5892;43.412;24.612;2023-10-31T03:10:51;11.53;;;5.03;;
11671;SDS011;5892;43.412;24.612;2023-10-31T03:13:19;8.43;;;4.87;;
11671;SDS011;5892;43.412;24.612;2023-10-31T03:15:49;7.20;;;4.90;;
11671;SDS011;5892;43.412;24.612;2023-10-31T03:18:18;6.20;;;4.77;;
11671;SDS011;5892;43.412;24.612;2023-10-31T03:20:46;9.00;;;4.80;;
11671;SDS011;5892;43.412;24.612;2023-10-31T03:23:13;8.03;;;4.57;;
11671;SDS011;5892;43.412;24.612;2023-10-31T03:25:40;10.87;;;5.00;;
11671;SDS011;5892;43.412;24.612;2023-10-31T03:28:17;11.20;;;5.17;;
11671;SDS011;5892;43.412;24.612;2023-10-31T03:30:45;8.90;;;4.73;;
11671;SDS011;5892;43.412;24.612;2023-10-31T03:33:15;6.97;;;4.53;;
11671;SDS011;5892;43.412;24.612;2023-10-31T03:35:42;8.17;;;4.33;;
11671;SDS011;5892;43.412;24.612;2023-10-31T03:38:11;7.10;;;4.70;;
11671;SDS011;5892;43.412;24.612;2023-10-31T03:40:40;9.73;;;4.70;;
11671;SDS011;5892;43.412;24.612;2023-10-31T03:43:07;9.93;;;5.27;;
11671;SDS011;5892;43.412;24.612;2023-10-31T03:45:34;7.77;;;4.67;;
11671;SDS011;5892;43.412;24.612;2023-10-31T03:48:02;7.33;;;4.87;;
11671;SDS011;5892;43.412;24.612;2023-10-31T03:50:31;8.43;;;4.90;;
11671;SDS011;5892;43.412;24.612;2023-10-31T03:52:59;11.03;;;5.27;;
11671;SDS011;5892;43.412;24.612;2023-10-31T03:55:26;10.10;;;5.00;;
11671;SDS011;5892;43.412;24.612;2023-10-31T03:57:53;10.87;;;4.83;;
11671;SDS011;5892;43.412;24.612;2023-10-31T04:00:20;10.87;;;5.40;;
11671;SDS011;5892;43.412;24.612;2023-10-31T04:02:49;8.73;;;5.30;;
11671;SDS011;5892;43.412;24.612;2023-10-31T04:05:17;12.23;;;4.80;;
11671;SDS011;5892;43.412;24.612;2023-10-31T04:07:49;7.77;;;5.20;;
11671;SDS011;5892;43.412;24.612;2023-10-31T04:10:20;10.93;;;5.20;;
11671;SDS011;5892;43.412;24.612;2023-10-31T04:12:47;9.07;;;4.90;;
11671;SDS011;5892;43.412;24.612;2023-10-31T04:15:14;9.60;;;4.90;;
11671;SDS011;5892;43.412;24.612;2023-10-31T04:17:43;11.07;;;4.90;;
11671;SDS011;5892;43.412;24.612;2023-10-31T04:20:11;10.87;;;5.03;;
11671;SDS011;5892;43.412;24.612;2023-10-31T04:22:38;8.27;;;4.63;;
11671;SDS011;5892;43.412;24.612;2023-10-31T04:25:07;9.13;;;4.80;;
11671;SDS011;5892;43.412;24.612;2023-10-31T04:27:38;11.17;;;5.10;;
11671;SDS011;5892;43.412;24.612;2023-10-31T04:30:06;11.07;;;4.80;;
11671;SDS011;5892;43.412;24.612;2023-10-31T04:32:34;8.70;;;5.40;;
11671;SDS011;5892;43.412;24.612;2023-10-31T04:35:04;8.80;;;4.70;;
11671;SDS011;5892;43.412;24.612;2023-10-31T04:37:31;11.50;;;5.27;;
11671;SDS011;5892;43.412;24.612;2023-10-31T04:40:06;12.40;;;5.20;;
11671;SDS011;5892;43.412;24.612;2023-10-31T04:42:55;10.53;;;5.60;;
11671;SDS011;5892;43.412;24.612;2023-10-31T04:45:22;11.50;;;5.40;;
11671;SDS011;5892;43.412;24.612;2023-10-31T04:47:49;9.50;;;5.17;;
11671;SDS011;5892;43.412;24.612;2023-10-31T04:50:18;10.67;;;5.50;;
11671;SDS011;5892;43.412;24.612;2023-10-31T04:52:55;10.33;;;5.03;;
11671;SDS011;5892;43.412;24.612;2023-10-31T04:55:23;10.40;;;5.70;;
11671;SDS011;5892;43.412;24.612;2023-10-31T04:57:53;11.67;;;5.60;;
11671;SDS011;5892;43.412;24.612;2023-10-31T05:00:25;12.20;;;5.60;;
11671;SDS011;5892;43.412;24.612;2023-10-31T05:02:56;12.30;;;5.53;;
11671;SDS011;5892;43.412;24.612;2023-10-31T05:05:25;9.30;;;5.80;;
11671;SDS011;5892;43.412;24.612;2023-10-31T05:07:53;10.13;;;6.03;;
11671;SDS011;5892;43.412;24.612;2023-10-31T05:10:20;11.10;;;5.23;;
11671;SDS011;5892;43.412;24.612;2023-10-31T05:12:49;10.80;;;6.00;;
11671;SDS011;5892;43.412;24.612;2023-10-31T05:15:18;11.00;;;5.73;;
11671;SDS011;5892;43.412;24.612;2023-10-31T05:17:46;11.43;;;6.30;;
11671;SDS011;5892;43.412;24.612;2023-10-31T05:20:14;14.33;;;5.90;;
11671;SDS011;5892;43.412;24.612;2023-10-31T05:22:42;11.60;;;5.63;;
11671;SDS011;5892;43.412;24.612;2023-10-31T05:25:09;11.73;;;5.80;;
11671;SDS011;5892;43.412;24.612;2023-10-31T05:27:37;11.33;;;5.60;;
11671;SDS011;5892;43.412;24.612;2023-10-31T05:30:05;13.13;;;6.00;;
11671;SDS011;5892;43.412;24.612;2023-10-31T05:32:35;16.03;;;5.70;;
11671;SDS011;5892;43.412;24.612;2023-10-31T05:35:06;12.00;;;5.70;;
11671;SDS011;5892;43.412;24.612;2023-10-31T05:37:34;13.93;;;5.73;;
11671;SDS011;5892;43.412;24.612;2023-10-31T05:40:02;12.43;;;5.97;;
11671;SDS011;5892;43.412;24.612;2023-10-31T05:42:29;9.60;;;5.57;;
11671;SDS011;5892;43.412;24.612;2023-10-31T05:44:57;12.60;;;5.87;;
11671;SDS011;5892;43.412;24.612;2023-10-31T05:47:26;13.00;;;5.83;;
11671;SDS011;5892;43.412;24.612;2023-10-31T05:49:55;9.93;;;6.20;;
11671;SDS011;5892;43.412;24.612;2023-10-31T05:52:22;12.87;;;6.30;;
11671;SDS011;5892;43.412;24.612;2023-10-31T05:54:50;15.30;;;6.13;;
11671;SDS011;5892;43.412;24.612;2023-10-31T05:57:17;10.50;;;5.60;;
11671;SDS011;5892;43.412;24.612;2023-10-31T05:59:45;19.00;;;5.90;;
11671;SDS011;5892;43.412;24.612;2023-10-31T06:02:12;13.10;;;5.70;;
11671;SDS011;5892;43.412;24.612;2023-10-31T06:04:40;11.93;;;5.63;;
11671;SDS011;5892;43.412;24.612;2023-10-31T06:07:12;9.97;;;5.97;;
11671;SDS011;5892;43.412;24.612;2023-10-31T06:09:40;12.40;;;5.70;;
11671;SDS011;5892;43.412;24.612;2023-10-31T06:12:08;11.43;;;5.70;;
11671;SDS011;5892;43.412;24.612;2023-10-31T06:14:35;8.13;;;4.50;;
11671;SDS011;5892;43.412;24.612;2023-10-31T06:17:03;13.67;;;4.87;;
11671;SDS011;5892;43.412;24.612;2023-10-31T06:19:34;20.23;;;5.40;;
11671;SDS011;5892;43.412;24.612;2023-10-31T06:22:03;17.43;;;5.30;;
11671;SDS011;5892;43.412;24.612;2023-10-31T06:24:32;14.63;;;5.27;;
11671;SDS011;5892;43.412;24.612;2023-10-31T06:26:59;9.17;;;4.83;;
11671;SDS011;5892;43.412;24.612;2023-10-31T06:29:28;14.53;;;5.10;;
11671;SDS011;5892;43.412;24.612;2023-10-31T06:31:57;10.97;;;5.53;;
11671;SDS011;5892;43.412;24.612;2023-10-31T06:34:26;10.23;;;5.53;;
11671;SDS011;5892;43.412;24.612;2023-10-31T06:36:54;14.47;;;5.73;;
11671;SDS011;5892;43.412;24.612;2023-10-31T06:39:21;16.87;;;8.33;;
11671;SDS011;5892;43.412;24.612;2023-10-31T06:41:50;12.17;;;6.10;;
11671;SDS011;5892;43.412;24.612;2023-10-31T06:44:21;16.43;;;5.63;;
11671;SDS011;5892;43.412;24.612;2023-10-31T06:46:48;12.13;;;6.10;;
11671;SDS011;5892;43.412;24.612;2023-10-31T06:49:15;11.67;;;5.60;;
11671;SDS011;5892;43.412;24.612;2023-10-31T06:51:45;13.70;;;5.63;;
11671;SDS011;5892;43.412;24.612;2023-10-31T06:54:15;12.43;;;5.20;;
11671;SDS011;5892;43.412;24.612;2023-10-31T06:56:42;17.83;;;5.77;;
11671;SDS011;5892;43.412;24.612;2023-10-31T06:59:11;22.17;;;4.87;;
11671;SDS011;5892;43.412;24.612;2023-10-31T07:01:39;13.27;;;4.57;;
11671;SDS011;5892;43.412;24.612;2023-10-31T07:04:06;20.67;;;4.80;;
11671;SDS011;5892;43.412;24.612;2023-10-31T07:06:33;12.13;;;4.83;;
11671;SDS011;5892;43.412;24.612;2023-10-31T07:08:59;9.80;;;4.00;;
11671;SDS011;5892;43.412;24.612;2023-10-31T07:11:30;18.60;;;4.37;;
11671;SDS011;5892;43.412;24.612;2023-10-31T07:14:01;19.13;;;5.20;;
11671;SDS011;5892;43.412;24.612;2023-10-31T07:16:31;20.17;;;4.50;;
11671;SDS011;5892;43.412;24.612;2023-10-31T07:19:01;14.67;;;4.03;;
11671;SDS011;5892;43.412;24.612;2023-10-31T07:21:34;9.27;;;3.70;;
11671;SDS011;5892;43.412;24.612;2023-10-31T07:24:02;8.90;;;3.43;;
11671;SDS011;5892;43.412;24.612;2023-10-31T07:26:30;12.40;;;3.87;;
11671;SDS011;5892;43.412;24.612;2023-10-31T07:28:59;8.53;;;3.43;;
11671;SDS011;5892;43.412;24.612;2023-10-31T07:31:26;10.37;;;3.60;;
11671;SDS011;5892;43.412;24.612;2023-10-31T07:33:57;11.70;;;3.30;;
11671;SDS011;5892;43.412;24.612;2023-10-31T07:36:26;11.90;;;3.80;;
11671;SDS011;5892;43.412;24.612;2023-10-31T07:38:54;9.60;;;3.07;;
11671;SDS011;5892;43.412;24.612;2023-10-31T07:41:24;8.57;;;3.83;;
11671;SDS011;5892;43.412;24.612;2023-10-31T07:43:52;8.23;;;3.60;;
11671;SDS011;5892;43.412;24.612;2023-10-31T07:46:23;10.47;;;4.30;;
11671;SDS011;5892;43.412;24.612;2023-10-31T07:48:50;19.40;;;4.80;;
11671;SDS011;5892;43.412;24.612;2023-10-31T07:51:19;19.47;;;7.23;;
11671;SDS011;5892;43.412;24.612;2023-10-31T07:53:47;18.20;;;6.77;;
11671;SDS011;5892;43.412;24.612;2023-10-31T07:56:14;17.40;;;7.10;;
11671;SDS011;5892;43.412;24.612;2023-10-31T07:58:42;18.00;;;7.17;;
11671;SDS011;5892;43.412;24.612;2023-10-31T08:01:10;19.17;;;8.13;;
11671;SDS011;5892;43.412;24.612;2023-10-31T08:03:51;25.13;;;9.17;;
11671;SDS011;5892;43.412;24.612;2023-10-31T08:06:21;26.83;;;9.50;;
11671;SDS011;5892;43.412;24.612;2023-10-31T08:08:49;22.27;;;9.90;;
11671;SDS011;5892;43.412;24.612;2023-10-31T08:11:17;22.33;;;9.87;;
11671;SDS011;5892;43.412;24.612;2023-10-31T08:13:44;21.80;;;10.20;;
11671;SDS011;5892;43.412;24.612;2023-10-31T08:16:16;27.90;;;11.03;;
11671;SDS011;5892;43.412;24.612;2023-10-31T08:18:48;27.47;;;11.17;;
11671;SDS011;5892;43.412;24.612;2023-10-31T08:21:26;26.93;;;11.50;;
11671;SDS011;5892;43.412;24.612;2023-10-31T08:23:58;29.07;;;10.87;;
11671;SDS011;5892;43.412;24.612;2023-10-31T08:26:26;29.30;;;11.67;;
11671;SDS011;5892;43.412;24.612;2023-10-31T08:28:59;21.33;;;9.90;;
11671;SDS011;5892;43.412;24.612;2023-10-31T08:31:26;25.27;;;10.20;;
11671;SDS011;5892;43.412;24.612;2023-10-31T08:33:56;22.97;;;9.67;;
11671;SDS011;5892;43.412;24.612;2023-10-31T08:36:27;17.50;;;7.70;;
11671;SDS011;5892;43.412;24.612;2023-10-31T08:39:03;14.83;;;5.47;;
11671;SDS011;5892;43.412;24.612;2023-10-31T08:41:48;15.20;;;6.70;;
11671;SDS011;5892;43.412;24.612;2023-10-31T08:44:17;9.40;;;3.63;;
11671;SDS011;5892;43.412;24.612;2023-10-31T08:46:44;11.07;;;4.70;;
11671;SDS011;5892;43.412;24.612;2023-10-31T08:49:12;10.47;;;5.40;;
11671;SDS011;5892;43.412;24.612;2023-10-31T08:51:46;16.37;;;6.27;;
11671;SDS011;5892;43.412;24.612;2023-10-31T08:54:15;23.07;;;6.47;;
11671;SDS011;5892;43.412;24.612;2023-10-31T08:56:43;15.87;;;6.80;;
11671;SDS011;5892;43.412;24.612;2023-10-31T08:59:10;15.47;;;7.13;;
11671;SDS011;5892;43.412;24.612;2023-10-31T09:01:38;12.60;;;7.00;;
11671;SDS011;5892;43.412;24.612;2023-10-31T09:04:06;20.17;;;7.40;;
11671;SDS011;5892;43.412;24.612;2023-10-31T09:06:33;15.37;;;7.20;;
11671;SDS011;5892;43.412;24.612;2023-10-31T09:09:03;10.27;;;5.70;;
11671;SDS011;5892;43.412;24.612;2023-10-31T09:11:35;17.93;;;6.37;;
11671;SDS011;5892;43.412;24.612;2023-10-31T09:14:02;13.93;;;4.83;;
11671;SDS011;5892;43.412;24.612;2023-10-31T09:16:30;7.73;;;3.40;;
11671;SDS011;5892;43.412;24.612;2023-10-31T09:19:04;7.60;;;2.80;;
11671;SDS011;5892;43.412;24.612;2023-10-31T09:21:33;10.20;;;3.47;;
11671;SDS011;5892;43.412;24.612;2023-10-31T09:24:01;11.07;;;5.50;;
11671;SDS011;5892;43.412;24.612;2023-10-31T09:26:30;5.00;;;2.77;;
11671;SDS011;5892;43.412;24.612;2023-10-31T09:29:00;6.13;;;2.90;;
11671;SDS011;5892;43.412;24.612;2023-10-31T09:31:27;7.03;;;2.30;;
11671;SDS011;5892;43.412;24.612;2023-10-31T09:33:56;6.27;;;2.20;;
11671;SDS011;5892;43.412;24.612;2023-10-31T09:36:24;6.30;;;2.50;;
11671;SDS011;5892;43.412;24.612;2023-10-31T09:38:52;7.73;;;2.73;;
11671;SDS011;5892;43.412;24.612;2023-10-31T09:41:20;4.77;;;2.17;;
11671;SDS011;5892;43.412;24.612;2023-10-31T09:43:53;4.80;;;2.10;;
11671;SDS011;5892;43.412;24.612;2023-10-31T09:46:21;6.57;;;2.33;;
11671;SDS011;5892;43.412;24.612;2023-10-31T09:48:48;6.00;;;2.07;;
11671;SDS011;5892;43.412;24.612;2023-10-31T09:51:16;5.57;;;2.07;;
11671;SDS011;5892;43.412;24.612;2023-10-31T09:53:45;4.63;;;2.20;;
11671;SDS011;5892;43.412;24.612;2023-10-31T09:56:14;7.37;;;2.20;;
11671;SDS011;5892;43.412;24.612;2023-10-31T09:58:43;7.73;;;2.30;;
11671;SDS011;5892;43.412;24.612;2023-10-31T10:01:14;4.23;;;1.90;;
11671;SDS011;5892;43.412;24.612;2023-10-31T10:03:41;6.77;;;2.40;;
11671;SDS011;5892;43.412;24.612;2023-10-31T10:06:09;6.43;;;2.47;;
11671;SDS011;5892;43.412;24.612;2023-10-31T10:08:38;3.90;;;2.27;;
11671;SDS011;5892;43.412;24.612;2023-10-31T10:11:06;3.50;;;2.20;;
11671;SDS011;5892;43.412;24.612;2023-10-31T10:13:34;7.43;;;2.53;;
11671;SDS011;5892;43.412;24.612;2023-10-31T10:16:01;4.63;;;2.43;;
11671;SDS011;5892;43.412;24.612;2023-10-31T10:18:35;3.93;;;2.30;;
11671;SDS011;5892;43.412;24.612;2023-10-31T10:21:12;8.87;;;3.27;;
11671;SDS011;5892;43.412;24.612;2023-10-31T10:23:41;9.13;;;3.97;;
11671;SDS011;5892;43.412;24.612;2023-10-31T10:26:09;7.40;;;2.40;;
11671;SDS011;5892;43.412;24.612;2023-10-31T10:28:39;6.23;;;3.10;;
11671;SDS011;5892;43.412;24.612;2023-10-31T10:31:13;6.80;;;2.30;;
11671;SDS011;5892;43.412;24.612;2023-10-31T10:33:43;6.73;;;3.13;;
11671;SDS011;5892;43.412;24.612;2023-10-31T10:36:11;7.40;;;2.33;;
11671;SDS011;5892;43.412;24.612;2023-10-31T10:38:41;4.90;;;2.23;;
11671;SDS011;5892;43.412;24.612;2023-10-31T10:41:17;6.27;;;2.30;;
11671;SDS011;5892;43.412;24.612;2023-10-31T10:43:47;7.57;;;2.70;;
11671;SDS011;5892;43.412;24.612;2023-10-31T10:46:23;6.43;;;2.37;;
11671;SDS011;5892;43.412;24.612;2023-10-31T10:48:55;9.03;;;2.70;;
11671;SDS011;5892;43.412;24.612;2023-10-31T10:51:27;8.13;;;2.70;;
11671;SDS011;5892;43.412;24.612;2023-10-31T10:54:05;5.70;;;2.03;;
11671;SDS011;5892;43.412;24.612;2023-10-31T10:56:37;7.13;;;1.97;;
11671;SDS011;5892;43.412;24.612;2023-10-31T10:59:07;5.97;;;2.60;;
11671;SDS011;5892;43.412;24.612;2023-10-31T11:01:40;6.57;;;2.50;;
11671;SDS011;5892;43.412;24.612;2023-10-31T11:04:13;4.37;;;2.30;;
11671;SDS011;5892;43.412;24.612;2023-10-31T11:06:45;5.17;;;2.43;;
11671;SDS011;5892;43.412;24.612;2023-10-31T11:09:17;5.33;;;1.63;;
11671;SDS011;5892;43.412;24.612;2023-10-31T11:11:45;8.87;;;2.70;;
11671;SDS011;5892;43.412;24.612;2023-10-31T11:14:16;6.30;;;2.60;;
11671;SDS011;5892;43.412;24.612;2023-10-31T11:16:51;8.77;;;2.70;;
11671;SDS011;5892;43.412;24.612;2023-10-31T11:19:21;7.57;;;2.57;;
11671;SDS011;5892;43.412;24.612;2023-10-31T11:21:54;6.80;;;2.43;;
11671;SDS011;5892;43.412;24.612;2023-10-31T11:24:21;5.07;;;2.50;;
11671;SDS011;5892;43.412;24.612;2023-10-31T11:26:57;7.00;;;2.30;;
11671;SDS011;5892;43.412;24.612;2023-10-31T11:29:32;4.87;;;2.40;;
11671;SDS011;5892;43.412;24.612;2023-10-31T11:32:01;8.00;;;2.30;;
11671;SDS011;5892;43.412;24.612;2023-10-31T11:34:31;7.97;;;2.23;;
11671;SDS011;5892;43.412;24.612;2023-10-31T11:42:47;5.83;;;2.33;;
11671;SDS011;5892;43.412;24.612;2023-10-31T11:48:02;6.53;;;2.50;;
11671;SDS011;5892;43.412;24.612;2023-10-31T11:50:33;7.23;;;2.30;;
11671;SDS011;5892;43.412;24.612;2023-10-31T11:53:04;7.27;;;2.20;;
11671;SDS011;5892;43.412;24.612;2023-10-31T11:55:38;6.50;;;2.67;;
11671;SDS011;5892;43.412;24.612;2023-10-31T11:58:12;5.00;;;2.40;;
11671;SDS011;5892;43.412;24.612;2023-10-31T12:00:48;4.27;;;2.47;;
11671;SDS011;5892;43.412;24.612;2023-10-31T12:03:19;4.57;;;2.10;;
11671;SDS011;5892;43.412;24.612;2023-10-31T12:05:52;5.97;;;2.60;;
11671;SDS011;5892;43.412;24.612;2023-10-31T12:08:25;5.87;;;2.17;;
11671;SDS011;5892;43.412;24.612;2023-10-31T12:10:53;3.83;;;2.23;;
11671;SDS011;5892;43.412;24.612;2023-10-31T12:13:34;5.37;;;2.20;;
11671;SDS011;5892;43.412;24.612;2023-10-31T12:16:02;8.03;;;2.50;;
11671;SDS011;5892;43.412;24.612;2023-10-31T12:18:31;3.60;;;2.07;;
11671;SDS011;5892;43.412;24.612;2023-10-31T12:21:00;5.73;;;2.47;;
11671;SDS011;5892;43.412;24.612;2023-10-31T12:23:29;8.27;;;2.23;;
11671;SDS011;5892;43.412;24.612;2023-10-31T12:25:56;7.87;;;2.40;;
11671;SDS011;5892;43.412;24.612;2023-10-31T12:28:26;6.87;;;2.20;;
11671;SDS011;5892;43.412;24.612;2023-10-31T12:30:55;9.40;;;2.33;;
11671;SDS011;5892;43.412;24.612;2023-10-31T12:33:25;7.20;;;2.30;;
11671;SDS011;5892;43.412;24.612;2023-10-31T12:35:56;4.77;;;2.07;;
11671;SDS011;5892;43.412;24.612;2023-10-31T12:38:27;4.33;;;2.07;;
11671;SDS011;5892;43.412;24.612;2023-10-31T12:40:55;4.13;;;2.07;;
11671;SDS011;5892;43.412;24.612;2023-10-31T12:43:24;8.07;;;2.63;;
11671;SDS011;5892;43.412;24.612;2023-10-31T12:45:52;6.27;;;2.40;;
11671;SDS011;5892;43.412;24.612;2023-10-31T12:48:23;5.73;;;2.00;;
11671;SDS011;5892;43.412;24.612;2023-10-31T12:53:38;2.67;;;1.97;;
11671;SDS011;5892;43.412;24.612;2023-10-31T12:59:06;8.13;;;2.37;;
11671;SDS011;5892;43.412;24.612;2023-10-31T13:01:41;6.97;;;2.60;;
11671;SDS011;5892;43.412;24.612;2023-10-31T13:04:09;6.30;;;2.63;;
11671;SDS011;5892;43.412;24.612;2023-10-31T13:06:38;7.20;;;2.10;;
11671;SDS011;5892;43.412;24.612;2023-10-31T13:09:21;5.27;;;2.53;;
11671;SDS011;5892;43.412;24.612;2023-10-31T13:12:03;8.97;;;3.13;;
11671;SDS011;5892;43.412;24.612;2023-10-31T13:14:32;7.60;;;2.80;;
11671;SDS011;5892;43.412;24.612;2023-10-31T13:17:00;11.47;;;2.90;;
11671;SDS011;5892;43.412;24.612;2023-10-31T13:19:28;6.43;;;2.70;;
11671;SDS011;5892;43.412;24.612;2023-10-31T13:21:56;4.17;;;2.40;;
11671;SDS011;5892;43.412;24.612;2023-10-31T13:24:37;4.60;;;2.53;;
11671;SDS011;5892;43.412;24.612;2023-10-31T13:27:05;6.90;;;2.57;;
11671;SDS011;5892;43.412;24.612;2023-10-31T13:29:33;4.90;;;2.33;;
11671;SDS011;5892;43.412;24.612;2023-10-31T13:32:00;5.60;;;2.40;;
11671;SDS011;5892;43.412;24.612;2023-10-31T13:34:30;7.37;;;2.67;;
11671;SDS011;5892;43.412;24.612;2023-10-31T13:36:58;7.47;;;2.17;;
11671;SDS011;5892;43.412;24.612;2023-10-31T13:39:30;8.80;;;2.47;;
11671;SDS011;5892;43.412;24.612;2023-10-31T13:41:57;6.63;;;2.77;;
11671;SDS011;5892;43.412;24.612;2023-10-31T13:44:24;8.03;;;2.47;;
11671;SDS011;5892;43.412;24.612;2023-10-31T13:46:52;9.80;;;2.70;;
11671;SDS011;5892;43.412;24.612;2023-10-31T13:49:21;7.10;;;2.40;;
11671;SDS011;5892;43.412;24.612;2023-10-31T13:51:58;7.07;;;3.00;;
11671;SDS011;5892;43.412;24.612;2023-10-31T13:54:26;4.53;;;2.60;;
11671;SDS011;5892;43.412;24.612;2023-10-31T13:57:10;5.97;;;2.83;;
11671;SDS011;5892;43.412;24.612;2023-10-31T13:59:39;9.03;;;2.97;;
11671;SDS011;5892;43.412;24.612;2023-10-31T14:02:08;9.03;;;3.27;;
11671;SDS011;5892;43.412;24.612;2023-10-31T14:04:37;9.30;;;2.70;;
11671;SDS011;5892;43.412;24.612;2023-10-31T14:07:05;8.70;;;3.00;;
11671;SDS011;5892;43.412;24.612;2023-10-31T14:09:34;9.83;;;2.60;;
11671;SDS011;5892;43.412;24.612;2023-10-31T14:12:12;9.07;;;3.20;;
11671;SDS011;5892;43.412;24.612;2023-10-31T14:14:45;10.97;;;3.40;;
11671;SDS011;5892;43.412;24.612;2023-10-31T14:17:16;14.67;;;3.40;;
11671;SDS011;5892;43.412;24.612;2023-10-31T14:19:46;8.80;;;3.57;;
11671;SDS011;5892;43.412;24.612;2023-10-31T14:22:16;8.67;;;3.20;;
11671;SDS011;5892;43.412;24.612;2023-10-31T14:24:47;13.70;;;3.83;;
11671;SDS011;5892;43.412;24.612;2023-10-31T14:27:18;9.80;;;3.33;;
11671;SDS011;5892;43.412;24.612;2023-10-31T14:29:46;8.63;;;3.50;;
11671;SDS011;5892;43.412;24.612;2023-10-31T14:32:13;8.20;;;2.90;;
11671;SDS011;5892;43.412;24.612;2023-10-31T14:34:40;11.07;;;3.30;;
11671;SDS011;5892;43.412;24.612;2023-10-31T14:37:07;5.40;;;2.70;;
11671;SDS011;5892;43.412;24.612;2023-10-31T14:39:35;10.57;;;3.00;;
11671;SDS011;5892;43.412;24.612;2023-10-31T14:42:05;6.00;;;2.70;;
11671;SDS011;5892;43.412;24.612;2023-10-31T14:44:35;5.30;;;2.63;;
11671;SDS011;5892;43.412;24.612;2023-10-31T14:47:02;6.60;;;2.70;;
11671;SDS011;5892;43.412;24.612;2023-10-31T14:49:31;11.13;;;2.67;;
11671;SDS011;5892;43.412;24.612;2023-10-31T14:51:59;7.03;;;2.33;;
11671;SDS011;5892;43.412;24.612;2023-10-31T14:54:26;5.63;;;2.50;;
11671;SDS011;5892;43.412;24.612;2023-10-31T14:56:54;10.53;;;2.77;;
11671;SDS011;5892;43.412;24.612;2023-10-31T14:59:22;9.23;;;2.90;;
11671;SDS011;5892;43.412;24.612;2023-10-31T15:01:58;6.23;;;2.70;;
11671;SDS011;5892;43.412;24.612;2023-10-31T15:04:25;7.50;;;2.70;;
11671;SDS011;5892;43.412;24.612;2023-10-31T15:06:52;7.97;;;2.70;;
11671;SDS011;5892;43.412;24.612;2023-10-31T15:09:22;5.77;;;2.70;;
11671;SDS011;5892;43.412;24.612;2023-10-31T15:11:50;10.90;;;2.80;;